sensor_id;sensor_type;location;lat;lon;timestamp;pressure;altitude;pressure_sealevel;temperature;humidity
8160;BME280;27404;52.398;9.646;2022-08-03T00:01:32;100842.50;;;18.33;100.00
8160;BME280;27404;52.398;9.646;2022-08-03T00:03:57;100835.88;;;18.24;100.00
8160;BME280;27404;52.398;9.646;2022-08-03T00:06:23;100836.50;;;18.16;100.00
8160;BME280;27404;52.398;9.646;2022-08-03T00:08:48;100837.06;;;18.13;100.00
8160;BME280;27404;52.398;9.646;2022-08-03T00:11:14;100835.13;;;18.08;100.00
8160;BME280;27404;52.398;9.646;2022-08-03T00:13:39;100839.56;;;18.04;100.00
8160;BME280;27404;52.398;9.646;2022-08-03T00:16:05;100838.19;;;18.01;100.00
8160;BME280;27404;52.398;9.646;2022-08-03T00:18:30;100835.41;;;17.96;100.00
8160;BME280;27404;52.398;9.646;2022-08-03T00:20:56;100825.72;;;17.94;100.00
8160;BME280;27404;52.398;9.646;2022-08-03T00:23:21;100829.59;;;17.92;100.00
8160;BME280;27404;52.398;9.646;2022-08-03T00:25:46;100834.59;;;17.90;100.00
8160;BME280;27404;52.398;9.646;2022-08-03T00:28:12;100826.03;;;17.87;100.00
8160;BME280;27404;52.398;9.646;2022-08-03T00:30:37;100826.88;;;17.82;100.00
8160;BME280;27404;52.398;9.646;2022-08-03T00:33:03;100830.75;;;17.81;100.00
8160;BME280;27404;52.398;9.646;2022-08-03T00:35:29;100826.88;;;17.77;100.00
8160;BME280;27404;52.398;9.646;2022-08-03T00:37:54;100823.03;;;17.73;100.00
8160;BME280;27404;52.398;9.646;2022-08-03T00:40:20;100828.81;;;17.71;100.00
8160;BME280;27404;52.398;9.646;2022-08-03T00:42:53;100826.34;;;17.70;100.00
8160;BME280;27404;52.398;9.646;2022-08-03T00:45:21;100830.22;;;17.69;100.00
8160;BME280;27404;52.398;9.646;2022-08-03T00:47:47;100816.09;;;17.70;100.00
8160;BME280;27404;52.398;9.646;2022-08-03T00:50:13;100813.91;;;17.67;100.00
8160;BME280;27404;52.398;9.646;2022-08-03T00:52:39;100821.09;;;17.63;100.00
8160;BME280;27404;52.398;9.646;2022-08-03T00:55:04;100818.63;;;17.56;100.00
8160;BME280;27404;52.398;9.646;2022-08-03T00:57:31;100820.03;;;17.54;100.00
8160;BME280;27404;52.398;9.646;2022-08-03T00:59:57;100813.38;;;17.55;100.00
8160;BME280;27404;52.398;9.646;2022-08-03T01:02:25;100824.41;;;17.60;100.00
8160;BME280;27404;52.398;9.646;2022-08-03T01:04:50;100812.53;;;17.59;100.00
8160;BME280;27404;52.398;9.646;2022-08-03T01:12:34;100820.59;;;17.45;100.00
8160;BME280;27404;52.398;9.646;2022-08-03T01:18:04;100812.28;;;17.35;100.00
8160;BME280;27404;52.398;9.646;2022-08-03T01:20:34;100818.63;;;17.30;100.00
8160;BME280;27404;52.398;9.646;2022-08-03T01:31:42;100804.00;;;17.25;100.00
8160;BME280;27404;52.398;9.646;2022-08-03T01:34:11;100809.53;;;17.20;100.00
8160;BME280;27404;52.398;9.646;2022-08-03T01:36:42;100813.38;;;17.13;100.00
8160;BME280;27404;52.398;9.646;2022-08-03T01:39:09;100806.75;;;17.09;100.00
8160;BME280;27404;52.398;9.646;2022-08-03T01:41:47;100808.41;;;17.05;100.00
8160;BME280;27404;52.398;9.646;2022-08-03T01:44:13;100803.19;;;17.09;100.00
8160;BME280;27404;52.398;9.646;2022-08-03T01:46:40;100811.47;;;17.14;100.00
8160;BME280;27404;52.398;9.646;2022-08-03T01:49:10;100813.41;;;17.19;100.00
8160;BME280;27404;52.398;9.646;2022-08-03T01:51:38;100804.56;;;17.16;100.00
8160;BME280;27404;52.398;9.646;2022-08-03T01:54:07;100801.53;;;17.08;100.00
8160;BME280;27404;52.398;9.646;2022-08-03T01:56:35;100806.50;;;17.00;100.00
8160;BME280;27404;52.398;9.646;2022-08-03T01:59:03;100802.03;;;16.94;100.00
8160;BME280;27404;52.398;9.646;2022-08-03T02:01:30;100801.72;;;16.91;100.00
8160;BME280;27404;52.398;9.646;2022-08-03T02:03:57;100806.44;;;16.90;100.00
8160;BME280;27404;52.398;9.646;2022-08-03T02:06:24;100801.47;;;16.87;100.00
8160;BME280;27404;52.398;9.646;2022-08-03T02:08:51;100802.31;;;16.87;100.00
8160;BME280;27404;52.398;9.646;2022-08-03T02:11:18;100810.56;;;16.93;100.00
8160;BME280;27404;52.398;9.646;2022-08-03T02:13:44;100801.75;;;16.96;100.00
8160;BME280;27404;52.398;9.646;2022-08-03T02:16:11;100808.38;;;16.95;100.00
8160;BME280;27404;52.398;9.646;2022-08-03T02:18:39;100801.47;;;16.92;100.00
8160;BME280;27404;52.398;9.646;2022-08-03T02:21:06;100804.50;;;16.91;100.00
8160;BME280;27404;52.398;9.646;2022-08-03T02:23:35;100800.63;;;16.92;100.00
8160;BME280;27404;52.398;9.646;2022-08-03T02:26:02;100801.47;;;16.87;100.00
8160;BME280;27404;52.398;9.646;2022-08-03T02:28:40;100801.72;;;16.75;100.00
8160;BME280;27404;52.398;9.646;2022-08-03T02:31:17;100801.19;;;16.73;100.00
8160;BME280;27404;52.398;9.646;2022-08-03T02:33:49;100792.91;;;16.78;100.00
8160;BME280;27404;52.398;9.646;2022-08-03T02:36:19;100798.41;;;16.73;100.00
8160;BME280;27404;52.398;9.646;2022-08-03T02:38:48;100793.47;;;16.80;100.00
8160;BME280;27404;52.398;9.646;2022-08-03T02:41:20;100790.16;;;16.83;100.00
8160;BME280;27404;52.398;9.646;2022-08-03T02:43:49;100784.88;;;16.77;100.00
8160;BME280;27404;52.398;9.646;2022-08-03T02:46:19;100793.16;;;16.71;100.00
8160;BME280;27404;52.398;9.646;2022-08-03T02:48:46;100791.22;;;16.67;100.00
8160;BME280;27404;52.398;9.646;2022-08-03T02:51:12;100794.78;;;16.62;100.00
8160;BME280;27404;52.398;9.646;2022-08-03T02:53:42;100784.59;;;16.57;100.00
8160;BME280;27404;52.398;9.646;2022-08-03T02:56:10;100785.13;;;16.54;100.00
8160;BME280;27404;52.398;9.646;2022-08-03T02:58:36;100781.25;;;16.55;100.00
8160;BME280;27404;52.398;9.646;2022-08-03T03:01:03;100784.03;;;16.55;100.00
8160;BME280;27404;52.398;9.646;2022-08-03T03:03:29;100782.94;;;16.62;100.00
8160;BME280;27404;52.398;9.646;2022-08-03T03:05:55;100782.63;;;16.58;100.00
8160;BME280;27404;52.398;9.646;2022-08-03T03:08:21;100785.13;;;16.54;100.00
8160;BME280;27404;52.398;9.646;2022-08-03T03:10:47;100784.00;;;16.50;100.00
8160;BME280;27404;52.398;9.646;2022-08-03T03:13:14;100782.34;;;16.49;100.00
8160;BME280;27404;52.398;9.646;2022-08-03T03:15:40;100787.34;;;16.63;100.00
8160;BME280;27404;52.398;9.646;2022-08-03T03:18:07;100785.97;;;16.55;100.00
8160;BME280;27404;52.398;9.646;2022-08-03T03:20:35;100782.34;;;16.49;100.00
8160;BME280;27404;52.398;9.646;2022-08-03T03:23:02;100786.22;;;16.48;100.00
8160;BME280;27404;52.398;9.646;2022-08-03T03:25:32;100788.97;;;16.53;100.00
8160;BME280;27404;52.398;9.646;2022-08-03T03:27:59;100785.13;;;16.54;100.00
8160;BME280;27404;52.398;9.646;2022-08-03T03:30:25;100787.31;;;16.52;100.00
8160;BME280;27404;52.398;9.646;2022-08-03T03:32:51;100788.72;;;16.60;100.00
8160;BME280;27404;52.398;9.646;2022-08-03T03:35:17;100789.81;;;16.59;100.00
8160;BME280;27404;52.398;9.646;2022-08-03T03:37:42;100786.50;;;16.52;100.00
8160;BME280;27404;52.398;9.646;2022-08-03T03:40:08;100792.84;;;16.47;100.00
8160;BME280;27404;52.398;9.646;2022-08-03T03:42:34;100786.50;;;16.52;100.00
8160;BME280;27404;52.398;9.646;2022-08-03T03:45:04;100783.75;;;16.52;100.00
8160;BME280;27404;52.398;9.646;2022-08-03T03:47:30;100788.97;;;16.53;100.00
8160;BME280;27404;52.398;9.646;2022-08-03T03:49:56;100779.63;;;16.60;100.00
8160;BME280;27404;52.398;9.646;2022-08-03T03:52:22;100778.50;;;16.55;100.00
8160;BME280;27404;52.398;9.646;2022-08-03T03:54:48;100779.63;;;16.60;100.00
8160;BME280;27404;52.398;9.646;2022-08-03T03:57:13;100781.00;;;16.62;100.00
8160;BME280;27404;52.398;9.646;2022-08-03T03:59:42;100778.25;;;16.72;100.00
8160;BME280;27404;52.398;9.646;2022-08-03T04:02:09;100771.91;;;16.72;100.00
8160;BME280;27404;52.398;9.646;2022-08-03T04:04:35;100787.66;;;16.77;100.00
8160;BME280;27404;52.398;9.646;2022-08-03T04:07:22;100787.38;;;16.78;100.00
8160;BME280;27404;52.398;9.646;2022-08-03T04:10:22;100782.69;;;16.79;100.00
8160;BME280;27404;52.398;9.646;2022-08-03T04:13:09;100791.50;;;16.81;100.00
8160;BME280;27404;52.398;9.646;2022-08-03T04:15:38;100796.22;;;16.91;100.00
8160;BME280;27404;52.398;9.646;2022-08-03T04:18:06;100784.06;;;16.92;100.00
8160;BME280;27404;52.398;9.646;2022-08-03T04:20:37;100785.50;;;16.99;100.00
8160;BME280;27404;52.398;9.646;2022-08-03T04:23:05;100791.84;;;17.05;100.00
8160;BME280;27404;52.398;9.646;2022-08-03T04:25:33;100795.16;;;17.17;100.00
8160;BME280;27404;52.398;9.646;2022-08-03T04:28:01;100800.13;;;17.26;100.00
8160;BME280;27404;52.398;9.646;2022-08-03T04:30:28;100803.72;;;17.47;100.00
8160;BME280;27404;52.398;9.646;2022-08-03T04:32:55;100800.28;;;19.07;100.00
8160;BME280;27404;52.398;9.646;2022-08-03T04:35:23;100814.28;;;21.44;100.00
8160;BME280;27404;52.398;9.646;2022-08-03T04:37:51;100814.09;;;23.48;87.12
8160;BME280;27404;52.398;9.646;2022-08-03T04:40:29;100815.19;;;25.30;72.00
8160;BME280;27404;52.398;9.646;2022-08-03T04:42:57;100819.81;;;26.72;59.79
8160;BME280;27404;52.398;9.646;2022-08-03T04:45:24;100821.31;;;27.79;54.05
8160;BME280;27404;52.398;9.646;2022-08-03T04:47:51;100832.72;;;28.86;48.23
8160;BME280;27404;52.398;9.646;2022-08-03T04:50:18;100838.41;;;29.59;44.58
8160;BME280;27404;52.398;9.646;2022-08-03T04:52:44;100829.25;;;29.62;44.02
8160;BME280;27404;52.398;9.646;2022-08-03T04:55:09;100834.34;;;28.87;44.23
8160;BME280;27404;52.398;9.646;2022-08-03T04:57:35;100837.34;;;28.04;46.51
8160;BME280;27404;52.398;9.646;2022-08-03T05:00:00;100829.06;;;27.15;49.36
8160;BME280;27404;52.398;9.646;2022-08-03T05:02:26;100835.28;;;25.88;55.50
8160;BME280;27404;52.398;9.646;2022-08-03T05:04:51;100820.09;;;24.45;63.17
8160;BME280;27404;52.398;9.646;2022-08-03T05:07:17;100828.16;;;23.34;71.18
8160;BME280;27404;52.398;9.646;2022-08-03T05:09:43;100828.09;;;22.52;77.46
8160;BME280;27404;52.398;9.646;2022-08-03T05:12:09;100829.22;;;21.95;81.89
8160;BME280;27404;52.398;9.646;2022-08-03T05:14:35;100821.28;;;21.55;85.13
8160;BME280;27404;52.398;9.646;2022-08-03T05:17:03;100828.75;;;21.27;88.21
8160;BME280;27404;52.398;9.646;2022-08-03T05:19:29;100825.78;;;21.04;90.28
8160;BME280;27404;52.398;9.646;2022-08-03T05:21:54;100815.72;;;20.89;92.83
8160;BME280;27404;52.398;9.646;2022-08-03T05:24:20;100815.63;;;20.75;93.60
8160;BME280;27404;52.398;9.646;2022-08-03T05:26:45;100812.13;;;20.69;93.62
8160;BME280;27404;52.398;9.646;2022-08-03T05:29:11;100813.00;;;20.65;94.29
8160;BME280;27404;52.398;9.646;2022-08-03T05:31:36;100817.94;;;20.68;93.72
8160;BME280;27404;52.398;9.646;2022-08-03T05:34:01;100815.09;;;20.73;93.79
8160;BME280;27404;52.398;9.646;2022-08-03T05:36:27;100815.34;;;20.77;93.93
8160;BME280;27404;52.398;9.646;2022-08-03T05:38:52;100810.03;;;20.80;93.07
8160;BME280;27404;52.398;9.646;2022-08-03T05:41:18;100817.16;;;20.86;92.27
8160;BME280;27404;52.398;9.646;2022-08-03T05:43:44;100815.34;;;20.96;92.10
8160;BME280;27404;52.398;9.646;2022-08-03T05:46:09;100817.84;;;21.30;90.00
8160;BME280;27404;52.398;9.646;2022-08-03T05:48:35;100811.59;;;23.15;79.59
8160;BME280;27404;52.398;9.646;2022-08-03T05:51:00;100818.13;;;25.42;65.42
8160;BME280;27404;52.398;9.646;2022-08-03T05:53:26;100815.19;;;27.65;51.97
8160;BME280;27404;52.398;9.646;2022-08-03T05:55:51;100828.97;;;29.67;44.10
8160;BME280;27404;52.398;9.646;2022-08-03T05:58:18;100829.03;;;31.50;39.75
8160;BME280;27404;52.398;9.646;2022-08-03T06:00:44;100833.81;;;34.24;34.18
8160;BME280;27404;52.398;9.646;2022-08-03T06:03:09;100839.25;;;36.63;30.06
8160;BME280;27404;52.398;9.646;2022-08-03T06:05:35;100843.38;;;38.42;27.04
8160;BME280;27404;52.398;9.646;2022-08-03T06:08:02;100853.28;;;39.89;24.96
8160;BME280;27404;52.398;9.646;2022-08-03T06:10:27;100845.69;;;40.46;23.25
8160;BME280;27404;52.398;9.646;2022-08-03T06:12:53;100843.06;;;39.05;24.63
8160;BME280;27404;52.398;9.646;2022-08-03T06:15:18;100845.06;;;37.26;26.56
8160;BME280;27404;52.398;9.646;2022-08-03T06:17:48;100843.34;;;36.33;27.87
8160;BME280;27404;52.398;9.646;2022-08-03T06:20:18;100840.25;;;37.19;26.88
8160;BME280;27404;52.398;9.646;2022-08-03T06:22:45;100843.56;;;38.24;25.78
8160;BME280;27404;52.398;9.646;2022-08-03T06:25:11;100853.63;;;40.59;23.76
8160;BME280;27404;52.398;9.646;2022-08-03T06:27:36;100844.69;;;42.33;21.00
8160;BME280;27404;52.398;9.646;2022-08-03T06:30:06;100856.00;;;43.51;19.67
8160;BME280;27404;52.398;9.646;2022-08-03T06:32:33;100853.47;;;43.79;19.22
8160;BME280;27404;52.398;9.646;2022-08-03T06:34:59;100868.72;;;44.72;18.06
8160;BME280;27404;52.398;9.646;2022-08-03T06:37:24;100858.53;;;45.03;17.64
8160;BME280;27404;52.398;9.646;2022-08-03T06:39:52;100857.72;;;45.84;17.28
8160;BME280;27404;52.398;9.646;2022-08-03T06:42:17;100862.22;;;45.76;17.41
8160;BME280;27404;52.398;9.646;2022-08-03T06:44:42;100867.19;;;45.94;17.45
8160;BME280;27404;52.398;9.646;2022-08-03T06:47:08;100858.84;;;45.87;16.80
8160;BME280;27404;52.398;9.646;2022-08-03T06:49:34;100861.63;;;43.93;18.29
8160;BME280;27404;52.398;9.646;2022-08-03T06:51:59;100854.44;;;41.56;21.20
8160;BME280;27404;52.398;9.646;2022-08-03T06:54:25;100860.59;;;40.37;22.40
8160;BME280;27404;52.398;9.646;2022-08-03T06:56:51;100854.84;;;39.38;23.43
8160;BME280;27404;52.398;9.646;2022-08-03T06:59:16;100858.78;;;39.48;23.26
8160;BME280;27404;52.398;9.646;2022-08-03T07:01:42;100860.25;;;39.60;23.94
8160;BME280;27404;52.398;9.646;2022-08-03T07:04:07;100856.31;;;39.50;23.89
8160;BME280;27404;52.398;9.646;2022-08-03T07:06:32;100853.72;;;39.01;24.36
8160;BME280;27404;52.398;9.646;2022-08-03T07:08:58;100860.47;;;39.15;24.53
8160;BME280;27404;52.398;9.646;2022-08-03T07:11:24;100860.97;;;39.41;24.33
8160;BME280;27404;52.398;9.646;2022-08-03T07:13:49;100859.78;;;39.38;24.38
8160;BME280;27404;52.398;9.646;2022-08-03T07:16:15;100872.03;;;38.69;24.76
8160;BME280;27404;52.398;9.646;2022-08-03T07:18:40;100859.78;;;37.85;26.16
8160;BME280;27404;52.398;9.646;2022-08-03T07:21:06;100864.97;;;37.37;26.96
8160;BME280;27404;52.398;9.646;2022-08-03T07:23:33;100864.44;;;36.64;27.73
8160;BME280;27404;52.398;9.646;2022-08-03T07:25:58;100864.09;;;35.90;29.09
8160;BME280;27404;52.398;9.646;2022-08-03T07:28:24;100863.97;;;35.32;29.73
8160;BME280;27404;52.398;9.646;2022-08-03T07:30:49;100853.34;;;35.03;30.50
8160;BME280;27404;52.398;9.646;2022-08-03T07:33:15;100862.47;;;34.67;30.85
8160;BME280;27404;52.398;9.646;2022-08-03T07:35:40;100854.88;;;33.78;31.81
8160;BME280;27404;52.398;9.646;2022-08-03T07:38:06;100848.19;;;33.21;32.84
8160;BME280;27404;52.398;9.646;2022-08-03T07:40:31;100851.22;;;32.71;34.98
8160;BME280;27404;52.398;9.646;2022-08-03T07:42:57;100849.44;;;32.32;36.15
8160;BME280;27404;52.398;9.646;2022-08-03T07:45:22;100858.25;;;32.04;37.09
8160;BME280;27404;52.398;9.646;2022-08-03T07:47:49;100849.44;;;31.63;36.80
8160;BME280;27404;52.398;9.646;2022-08-03T07:50:14;100850.16;;;30.97;37.07
8160;BME280;27404;52.398;9.646;2022-08-03T07:52:40;100854.81;;;30.89;37.34
8160;BME280;27404;52.398;9.646;2022-08-03T07:55:16;100853.13;;;30.49;39.25
8160;BME280;27404;52.398;9.646;2022-08-03T07:57:42;100855.56;;;30.66;39.04
8160;BME280;27404;52.398;9.646;2022-08-03T08:00:17;100850.75;;;30.51;38.98
8160;BME280;27404;52.398;9.646;2022-08-03T08:02:43;100850.72;;;30.15;38.88
8160;BME280;27404;52.398;9.646;2022-08-03T08:05:09;100851.50;;;30.16;39.98
8160;BME280;27404;52.398;9.646;2022-08-03T08:07:35;100851.50;;;29.83;41.30
8160;BME280;27404;52.398;9.646;2022-08-03T08:10:04;100847.13;;;29.86;40.55
8160;BME280;27404;52.398;9.646;2022-08-03T08:12:29;100842.59;;;29.81;40.75
8160;BME280;27404;52.398;9.646;2022-08-03T08:14:55;100844.13;;;29.63;40.74
8160;BME280;27404;52.398;9.646;2022-08-03T08:17:21;100837.13;;;29.57;41.43
8160;BME280;27404;52.398;9.646;2022-08-03T08:19:46;100847.22;;;29.29;40.71
8160;BME280;27404;52.398;9.646;2022-08-03T08:22:11;100841.53;;;29.13;42.25
8160;BME280;27404;52.398;9.646;2022-08-03T08:24:37;100837.25;;;29.32;41.66
8160;BME280;27404;52.398;9.646;2022-08-03T08:27:03;100835.16;;;29.29;41.50
8160;BME280;27404;52.398;9.646;2022-08-03T08:29:28;100835.63;;;29.02;41.79
8160;BME280;27404;52.398;9.646;2022-08-03T08:31:54;100839.69;;;29.33;41.86
8160;BME280;27404;52.398;9.646;2022-08-03T08:34:19;100839.13;;;29.40;42.18
8160;BME280;27404;52.398;9.646;2022-08-03T08:36:44;100838.09;;;29.48;41.45
8160;BME280;27404;52.398;9.646;2022-08-03T08:39:10;100838.03;;;29.45;41.39
8160;BME280;27404;52.398;9.646;2022-08-03T08:41:36;100842.31;;;29.26;40.93
8160;BME280;27404;52.398;9.646;2022-08-03T08:44:02;100839.66;;;29.46;41.24
8160;BME280;27404;52.398;9.646;2022-08-03T08:46:31;100838.03;;;29.61;41.72
8160;BME280;27404;52.398;9.646;2022-08-03T08:48:58;100839.81;;;29.37;40.73
8160;BME280;27404;52.398;9.646;2022-08-03T08:51:28;100842.22;;;29.51;40.54
8160;BME280;27404;52.398;9.646;2022-08-03T08:53:55;100839.59;;;29.58;40.96
8160;BME280;27404;52.398;9.646;2022-08-03T08:56:24;100850.16;;;29.33;40.92
8160;BME280;27404;52.398;9.646;2022-08-03T08:59:08;100847.09;;;29.38;41.45
8160;BME280;27404;52.398;9.646;2022-08-03T09:01:33;100846.75;;;29.55;40.62
8160;BME280;27404;52.398;9.646;2022-08-03T09:03:59;100845.47;;;29.53;39.48
8160;BME280;27404;52.398;9.646;2022-08-03T09:06:24;100845.44;;;29.37;40.97
8160;BME280;27404;52.398;9.646;2022-08-03T09:08:50;100843.22;;;29.59;41.12
8160;BME280;27404;52.398;9.646;2022-08-03T09:11:20;100845.47;;;29.53;40.75
8160;BME280;27404;52.398;9.646;2022-08-03T09:13:45;100831.13;;;29.58;39.57
8160;BME280;27404;52.398;9.646;2022-08-03T09:18:45;100828.38;;;29.17;39.65
8160;BME280;27404;52.398;9.646;2022-08-03T09:21:25;100831.63;;;29.32;40.10
8160;BME280;27404;52.398;9.646;2022-08-03T09:23:56;100834.03;;;29.46;39.31
8160;BME280;27404;52.398;9.646;2022-08-03T09:26:26;100834.34;;;29.73;39.89
8160;BME280;27404;52.398;9.646;2022-08-03T09:29:18;100831.47;;;29.57;39.53
8160;BME280;27404;52.398;9.646;2022-08-03T09:31:44;100835.28;;;29.48;38.90
8160;BME280;27404;52.398;9.646;2022-08-03T09:34:12;100826.97;;;29.68;39.42
8160;BME280;27404;52.398;9.646;2022-08-03T09:36:43;100827.69;;;29.65;39.26
8160;BME280;27404;52.398;9.646;2022-08-03T09:39:11;100825.69;;;29.65;38.74
8160;BME280;27404;52.398;9.646;2022-08-03T09:41:39;100826.03;;;29.48;38.26
8160;BME280;27404;52.398;9.646;2022-08-03T09:44:04;100836.50;;;29.79;38.72
8160;BME280;27404;52.398;9.646;2022-08-03T09:46:30;100834.88;;;29.94;39.09
8160;BME280;27404;52.398;9.646;2022-08-03T09:49:11;100829.44;;;29.85;38.22
8160;BME280;27404;52.398;9.646;2022-08-03T09:51:37;100834.41;;;29.60;38.97
8160;BME280;27404;52.398;9.646;2022-08-03T09:54:03;100829.50;;;29.57;39.99
8160;BME280;27404;52.398;9.646;2022-08-03T09:56:42;100831.59;;;29.76;39.98
8160;BME280;27404;52.398;9.646;2022-08-03T09:59:09;100820.91;;;29.98;39.32
8160;BME280;27404;52.398;9.646;2022-08-03T10:01:35;100826.44;;;30.10;38.36
8160;BME280;27404;52.398;9.646;2022-08-03T10:04:01;100827.66;;;30.29;38.28
8160;BME280;27404;52.398;9.646;2022-08-03T10:06:27;100827.22;;;30.27;38.66
8160;BME280;27404;52.398;9.646;2022-08-03T10:09:06;100834.84;;;30.42;37.72
8160;BME280;27404;52.398;9.646;2022-08-03T10:11:32;100819.94;;;30.26;37.51
8160;BME280;27404;52.398;9.646;2022-08-03T10:14:02;100821.34;;;30.16;38.00
8160;BME280;27404;52.398;9.646;2022-08-03T10:16:32;100826.31;;;30.23;38.01
8160;BME280;27404;52.398;9.646;2022-08-03T10:18:58;100827.03;;;30.36;37.73
8160;BME280;27404;52.398;9.646;2022-08-03T10:21:24;100826.41;;;30.26;37.36
8160;BME280;27404;52.398;9.646;2022-08-03T10:23:52;100818.53;;;30.00;36.86
8160;BME280;27404;52.398;9.646;2022-08-03T10:26:21;100816.81;;;30.11;38.48
8160;BME280;27404;52.398;9.646;2022-08-03T10:28:52;100823.50;;;30.23;38.30
8160;BME280;27404;52.398;9.646;2022-08-03T10:31:19;100816.31;;;30.25;38.53
8160;BME280;27404;52.398;9.646;2022-08-03T10:33:48;100810.78;;;29.97;37.96
8160;BME280;27404;52.398;9.646;2022-08-03T10:36:15;100809.16;;;29.96;38.80
8160;BME280;27404;52.398;9.646;2022-08-03T10:38:47;100805.59;;;29.83;39.46
8160;BME280;27404;52.398;9.646;2022-08-03T10:41:19;100800.81;;;29.99;37.75
8160;BME280;27404;52.398;9.646;2022-08-03T10:43:58;100809.09;;;30.08;38.73
8160;BME280;27404;52.398;9.646;2022-08-03T10:46:27;100803.88;;;29.94;37.63
8160;BME280;27404;52.398;9.646;2022-08-03T10:48:53;100803.06;;;29.94;37.78
8160;BME280;27404;52.398;9.646;2022-08-03T10:51:20;100800.13;;;29.90;38.04
8160;BME280;27404;52.398;9.646;2022-08-03T10:53:47;100792.53;;;29.75;38.32
8160;BME280;27404;52.398;9.646;2022-08-03T10:59:18;100791.41;;;29.95;39.79
8160;BME280;27404;52.398;9.646;2022-08-03T11:01:50;100789.88;;;30.14;38.98
8160;BME280;27404;52.398;9.646;2022-08-03T11:04:19;100790.53;;;30.07;38.68
8160;BME280;27404;52.398;9.646;2022-08-03T11:06:46;100793.97;;;30.01;38.41
8160;BME280;27404;52.398;9.646;2022-08-03T11:09:13;100794.72;;;30.13;38.96
8160;BME280;27404;52.398;9.646;2022-08-03T11:11:40;100796.88;;;30.20;39.16
8160;BME280;27404;52.398;9.646;2022-08-03T11:14:27;100786.09;;;30.26;39.56
8160;BME280;27404;52.398;9.646;2022-08-03T11:17:06;100788.53;;;30.43;39.59
8160;BME280;27404;52.398;9.646;2022-08-03T11:19:46;100790.38;;;30.55;38.32
8160;BME280;27404;52.398;9.646;2022-08-03T11:22:13;100784.28;;;30.69;38.19
8160;BME280;27404;52.398;9.646;2022-08-03T11:30:01;100787.69;;;30.59;37.16
8160;BME280;27404;52.398;9.646;2022-08-03T11:35:14;100778.66;;;30.34;36.89
8160;BME280;27404;52.398;9.646;2022-08-03T11:40:50;100773.28;;;30.64;36.26
8160;BME280;27404;52.398;9.646;2022-08-03T11:51:06;100778.41;;;30.58;36.14
8160;BME280;27404;52.398;9.646;2022-08-03T11:53:32;100772.34;;;30.40;36.24
8160;BME280;27404;52.398;9.646;2022-08-03T11:55:59;100771.22;;;30.61;35.79
8160;BME280;27404;52.398;9.646;2022-08-03T11:58:25;100776.13;;;30.64;36.98
8160;BME280;27404;52.398;9.646;2022-08-03T12:00:51;100776.84;;;30.61;36.58
8160;BME280;27404;52.398;9.646;2022-08-03T12:03:18;100773.00;;;30.53;36.36
8160;BME280;27404;52.398;9.646;2022-08-03T12:05:51;100776.06;;;30.44;37.10
8160;BME280;27404;52.398;9.646;2022-08-03T12:10:48;100769.63;;;30.44;36.81
8160;BME280;27404;52.398;9.646;2022-08-03T12:13:15;100767.59;;;30.44;36.13
8160;BME280;27404;52.398;9.646;2022-08-03T12:15:41;100764.31;;;30.42;36.27
8160;BME280;27404;52.398;9.646;2022-08-03T12:18:16;100767.94;;;30.59;36.25
8160;BME280;27404;52.398;9.646;2022-08-03T12:20:42;100769.19;;;30.62;37.87
8160;BME280;27404;52.398;9.646;2022-08-03T12:23:08;100772.56;;;30.67;35.91
8160;BME280;27404;52.398;9.646;2022-08-03T12:25:35;100772.41;;;30.80;36.62
8160;BME280;27404;52.398;9.646;2022-08-03T12:28:14;100762.16;;;30.71;35.80
8160;BME280;27404;52.398;9.646;2022-08-03T12:30:50;100756.97;;;30.73;36.73
8160;BME280;27404;52.398;9.646;2022-08-03T12:33:18;100759.78;;;30.73;37.36
8160;BME280;27404;52.398;9.646;2022-08-03T12:35:49;100760.22;;;30.76;36.05
8160;BME280;27404;52.398;9.646;2022-08-03T12:38:20;100754.66;;;30.79;35.88
8160;BME280;27404;52.398;9.646;2022-08-03T12:40:55;100762.72;;;30.81;35.51
8160;BME280;27404;52.398;9.646;2022-08-03T12:43:21;100756.13;;;30.73;35.33
8160;BME280;27404;52.398;9.646;2022-08-03T12:45:46;100757.75;;;30.74;35.70
8160;BME280;27404;52.398;9.646;2022-08-03T12:48:11;100746.22;;;31.02;35.50
8160;BME280;27404;52.398;9.646;2022-08-03T12:50:38;100748.88;;;31.15;35.03
8160;BME280;27404;52.398;9.646;2022-08-03T12:53:07;100748.97;;;31.19;35.58
8160;BME280;27404;52.398;9.646;2022-08-03T12:55:33;100745.91;;;31.27;34.93
8160;BME280;27404;52.398;9.646;2022-08-03T12:58:02;100753.06;;;31.21;34.78
8160;BME280;27404;52.398;9.646;2022-08-03T13:00:29;100755.44;;;31.19;35.95
8160;BME280;27404;52.398;9.646;2022-08-03T13:03:07;100747.19;;;31.10;35.60
8160;BME280;27404;52.398;9.646;2022-08-03T13:05:43;100745.34;;;31.18;33.99
8160;BME280;27404;52.398;9.646;2022-08-03T13:08:23;100741.06;;;31.28;34.36
8160;BME280;27404;52.398;9.646;2022-08-03T13:10:49;100735.22;;;31.40;34.13
8160;BME280;27404;52.398;9.646;2022-08-03T13:13:16;100735.75;;;31.46;33.48
8160;BME280;27404;52.398;9.646;2022-08-03T13:15:41;100743.00;;;31.47;33.05
8160;BME280;27404;52.398;9.646;2022-08-03T13:18:07;100736.69;;;31.54;33.71
8160;BME280;27404;52.398;9.646;2022-08-03T13:20:33;100732.38;;;31.64;33.53
8160;BME280;27404;52.398;9.646;2022-08-03T13:22:59;100735.78;;;31.73;34.01
8160;BME280;27404;52.398;9.646;2022-08-03T13:25:24;100748.78;;;31.54;33.37
8160;BME280;27404;52.398;9.646;2022-08-03T13:27:50;100742.31;;;31.54;33.57
8160;BME280;27404;52.398;9.646;2022-08-03T13:30:17;100738.75;;;31.57;33.40
8160;BME280;27404;52.398;9.646;2022-08-03T13:32:42;100743.56;;;31.56;33.68
8160;BME280;27404;52.398;9.646;2022-08-03T13:35:08;100733.41;;;31.52;32.14
8160;BME280;27404;52.398;9.646;2022-08-03T13:37:34;100733.41;;;31.52;34.33
8160;BME280;27404;52.398;9.646;2022-08-03T13:40:01;100734.34;;;31.59;33.68
8160;BME280;27404;52.398;9.646;2022-08-03T13:42:29;100724.28;;;31.62;33.20
8160;BME280;27404;52.398;9.646;2022-08-03T13:44:55;100731.16;;;31.61;32.49